Negombo, Sri Lanka
Current Conditions -  °F | °C
As of 8:10 AM on Saturday 20 Dec 2014 (Local Time) from VCBI Reporting Station
Broken Clouds Broken Clouds  
Wind Chill: 75°   Ceiling: 1600
Heat Index: 75°   Visibility: 6mi
Dew Point: 72°   Wind: 13mph
Humidity: 89%   Direction: 30°NNE
Pressure: 29.91"   Gusts: NA
Location:  7.22°N, 79.83°E
Report Text: VCBI 200210Z 03011KT 9000 FEW009 BKN016 BKN060 24/22 Q1013 NOSIG
Loading
Personal Weather Stations






























Interactive Weather Map New forecast layout! Learn more

10-Day Weather Forecast

Advertisements
Track Severe Weather on mobile